Time;durP1;ratioP1;P1;durP2;ratioP2;P2;SDS_P1;SDS_P2;PMS_P1;PMS_P2;Temp;Humidity;BMP_temperature;BMP_pressure;BME280_temperature;BME280_humidity;BME280_pressure;Samples;Min_cycle;Max_cycle;Signal;HPM_P1;HPM_P2
2022/11/05 00:09:34;;;;;;;0.10;0.10;;;;;;;;;;5080454;28;20036;-70
2022/11/05 00:17:34;;;;;;;0.10;0.10;;;;;;;;;;5092913;28;20111;-70
2022/11/05 00:20:00;;;;;;;0.10;0.10;;;;;;;;;;5091703;28;20115;-69
2022/11/05 00:25:16;;;;;;;0.10;0.10;;;;;;;;;;5093129;28;20541;-70
2022/11/05 00:27:45;;;;;;;0.10;0.10;;;;;;;;;;5092890;28;20036;-69
2022/11/05 00:30:12;;;;;;;0.52;0.52;;;;;;;;;;5096685;28;20024;-69
2022/11/05 00:32:37;;;;;;;0.10;0.10;;;;;;;;;;5096710;28;20599;-69
2022/11/05 00:35:04;;;;;;;0.10;0.10;;;;;;;;;;5104982;28;20111;-70
2022/11/05 00:37:29;;;;;;;0.10;0.10;;;;;;;;;;5115347;28;20051;-69
2022/11/05 00:39:55;;;;;;;0.10;0.10;;;;;;;;;;5117072;28;20462;-68
2022/11/05 00:45:05;;;;;;;0.10;0.10;;;;;;;;;;5115483;28;20036;-70
2022/11/05 00:50:15;;;;;;;0.10;0.10;;;;;;;;;;5116157;28;20051;-69
2022/11/05 00:52:55;;;;;;;0.10;0.10;;;;;;;;;;5116676;28;20077;-69
2022/11/05 00:55:27;;;;;;;0.10;0.10;;;;;;;;;;5115524;28;20028;-69
2022/11/05 00:57:53;;;;;;;0.10;0.10;;;;;;;;;;5116803;28;20051;-69
2022/11/05 01:00:18;;;;;;;0.10;0.10;;;;;;;;;;5116870;28;20051;-70
2022/11/05 01:02:43;;;;;;;0.10;0.10;;;;;;;;;;5116732;28;20062;-70
2022/11/05 01:05:09;;;;;;;0.10;0.10;;;;;;;;;;5114581;28;20032;-70
2022/11/05 01:07:34;;;;;;;0.10;0.10;;;;;;;;;;5102226;28;20667;-70
2022/11/05 01:10:00;;;;;;;0.15;0.15;;;;;;;;;;5108353;28;20032;-70
2022/11/05 01:12:25;;;;;;;0.10;0.10;;;;;;;;;;5096472;28;20086;-70
2022/11/05 01:14:51;;;;;;;0.10;0.10;;;;;;;;;;5114560;28;20035;-68
2022/11/05 01:17:16;;;;;;;0.10;0.10;;;;;;;;;;5116323;28;20077;-70
2022/11/05 01:19:42;;;;;;;0.10;0.10;;;;;;;;;;5115279;28;20084;-70
2022/11/05 01:22:07;;;;;;;0.10;0.10;;;;;;;;;;5116310;28;20032;-70
2022/11/05 01:24:32;;;;;;;0.10;0.10;;;;;;;;;;5115864;28;20020;-70
2022/11/05 01:26:58;;;;;;;0.10;0.10;;;;;;;;;;5115045;28;20131;-70
2022/11/05 01:29:24;;;;;;;0.10;0.10;;;;;;;;;;5116234;28;20020;-70
2022/11/05 01:31:49;;;;;;;0.10;0.10;;;;;;;;;;5116278;28;20127;-70
2022/11/05 01:34:14;;;;;;;0.10;0.10;;;;;;;;;;5114787;28;20031;-70
2022/11/05 01:36:40;;;;;;;0.28;0.28;;;;;;;;;;5116004;28;20031;-70
2022/11/05 01:39:05;;;;;;;0.10;0.10;;;;;;;;;;5115201;28;20076;-70
2022/11/05 01:41:31;;;;;;;0.10;0.10;;;;;;;;;;5114827;28;20487;-70
2022/11/05 01:44:00;;;;;;;0.10;0.10;;;;;;;;;;5115788;28;20016;-69
2022/11/05 01:46:25;;;;;;;0.38;0.38;;;;;;;;;;5114954;27;20044;-69
2022/11/05 01:48:52;;;;;;;0.10;0.10;;;;;;;;;;5115150;28;20031;-70
2022/11/05 01:51:19;;;;;;;0.10;0.10;;;;;;;;;;5116072;28;20106;-69
2022/11/05 01:53:47;;;;;;;0.10;0.10;;;;;;;;;;5115608;28;20038;-70
2022/11/05 01:56:19;;;;;;;0.10;0.10;;;;;;;;;;5115586;28;20039;-69
2022/11/05 01:58:47;;;;;;;0.10;0.10;;;;;;;;;;5115549;28;20027;-70
2022/11/05 02:01:13;;;;;;;0.10;0.10;;;;;;;;;;5114437;28;20031;-70
2022/11/05 02:03:39;;;;;;;0.10;0.10;;;;;;;;;;5115461;28;20424;-70
2022/11/05 02:06:08;;;;;;;0.10;0.10;;;;;;;;;;5114005;28;20413;-69
2022/11/05 02:08:39;;;;;;;0.10;0.10;;;;;;;;;;5113917;28;20478;-69
2022/11/05 02:11:04;;;;;;;0.10;0.10;;;;;;;;;;5115139;28;20038;-69
2022/11/05 02:13:30;;;;;;;0.10;0.10;;;;;;;;;;5115538;28;20028;-68
2022/11/05 02:16:00;;;;;;;0.10;0.10;;;;;;;;;;5115350;28;20391;-70
2022/11/05 02:18:25;;;;;;;;;;;;;;;;;;5115665;27;20103;-70
2022/11/05 02:20:59;;;;;;;0.10;0.10;;;;;;;;;;5115230;28;19951;-69
2022/11/05 02:23:28;;;;;;;0.10;0.10;;;;;;;;;;5115483;28;20080;-69
2022/11/05 02:25:57;;;;;;;0.10;0.10;;;;;;;;;;5114973;28;20019;-70
2022/11/05 02:28:34;;;;;;;0.10;0.10;;;;;;;;;;5115263;28;20478;-69
2022/11/05 02:31:03;;;;;;;0.10;0.10;;;;;;;;;;5115015;28;20409;-68
2022/11/05 02:33:42;;;;;;;0.10;0.10;;;;;;;;;;5114828;28;20042;-70
2022/11/05 02:36:22;;;;;;;0.10;0.10;;;;;;;;;;5114940;28;20077;-69
2022/11/05 02:38:48;;;;;;;0.10;0.10;;;;;;;;;;5110889;28;20032;-70
2022/11/05 02:41:33;;;;;;;0.10;0.10;;;;;;;;;;5114771;28;20098;-70
2022/11/05 02:44:10;;;;;;;0.10;0.10;;;;;;;;;;5107356;28;20089;-70
2022/11/05 02:46:35;;;;;;;0.10;0.10;;;;;;;;;;5114795;28;20055;-70
2022/11/05 02:49:01;;;;;;;0.10;0.10;;;;;;;;;;5114787;28;20471;-70
2022/11/05 02:51:26;;;;;;;0.10;0.10;;;;;;;;;;5112661;28;20031;-70
2022/11/05 02:54:11;;;;;;;0.10;0.10;;;;;;;;;;5114570;28;20126;-69
2022/11/05 02:56:42;;;;;;;0.10;0.10;;;;;;;;;;5113198;28;20096;-70
2022/11/05 02:59:07;;;;;;;0.10;0.10;;;;;;;;;;5114525;28;20024;-69
2022/11/05 03:01:33;;;;;;;0.10;0.10;;;;;;;;;;5114334;28;20035;-70
2022/11/05 03:03:59;;;;;;;0.10;0.10;;;;;;;;;;5114709;28;20020;-70
2022/11/05 03:06:25;;;;;;;2.72;1.45;;;;;;;;;;5114307;28;20076;-70
2022/11/05 03:08:50;;;;;;;0.10;0.10;;;;;;;;;;5113026;28;20032;-70
2022/11/05 03:11:20;;;;;;;0.45;0.45;;;;;;;;;;5112915;28;20467;-69
2022/11/05 03:13:55;;;;;;;0.10;0.10;;;;;;;;;;5114056;28;20031;-70
2022/11/05 03:16:26;;;;;;;0.10;0.10;;;;;;;;;;5114133;28;20475;-69
2022/11/05 03:19:10;;;;;;;2.83;2.50;;;;;;;;;;5114130;28;20110;-69
2022/11/05 03:21:39;;;;;;;0.10;0.10;;;;;;;;;;5113928;28;20038;-69
2022/11/05 03:24:11;;;;;;;0.10;0.10;;;;;;;;;;5112658;28;20542;-70
2022/11/05 03:26:49;;;;;;;0.10;0.10;;;;;;;;;;5113608;28;20119;-70
2022/11/05 03:29:21;;;;;;;5.95;5.53;;;;;;;;;;5112775;28;20020;-71
2022/11/05 03:31:48;;;;;;;0.10;0.10;;;;;;;;;;5113951;28;20374;-70
2022/11/05 03:34:14;;;;;;;0.10;0.10;;;;;;;;;;5113769;28;20031;-69
2022/11/05 03:36:42;;;;;;;0.10;0.10;;;;;;;;;;5113864;28;20027;-69
2022/11/05 03:39:09;;;;;;;0.25;0.25;;;;;;;;;;5112542;28;20027;-69
2022/11/05 03:41:37;;;;;;;0.00;0.00;;;;;;;;;;5112628;28;20475;-70
2022/11/05 03:44:05;;;;;;;3.58;3.30;;;;;;;;;;5113675;28;20081;-70
2022/11/05 03:46:33;;;;;;;0.10;0.10;;;;;;;;;;5113858;28;20545;-70
2022/11/05 03:49:01;;;;;;;0.10;0.10;;;;;;;;;;5112308;28;20020;-70
2022/11/05 03:51:26;;;;;;;0.45;0.45;;;;;;;;;;5113648;28;20490;-70
2022/11/05 03:53:56;;;;;;;0.10;0.10;;;;;;;;;;5113623;28;20027;-71
2022/11/05 03:56:27;;;;;;;0.20;0.20;;;;;;;;;;5113702;28;20110;-70
2022/11/05 03:58:53;;;;;;;0.10;0.10;;;;;;;;;;5112366;28;20055;-70
2022/11/05 04:01:19;;;;;;;0.10;0.10;;;;;;;;;;5104105;28;20020;-70
2022/11/05 04:03:44;;;;;;;0.10;0.10;;;;;;;;;;5092044;28;20032;-69
2022/11/05 04:14:22;;;;;;;1.48;1.48;;;;;;;;;;5093945;28;20096;-70
2022/11/05 04:17:05;;;;;;;0.10;0.10;;;;;;;;;;5092981;28;20510;-69
2022/11/05 04:24:59;;;;;;;0.43;0.43;;;;;;;;;;5093436;28;20056;-70
2022/11/05 04:27:24;;;;;;;0.10;0.10;;;;;;;;;;5092732;28;20517;-70
2022/11/05 04:32:33;;;;;;;0.10;0.10;;;;;;;;;;5093093;28;20024;-69
2022/11/05 04:34:59;;;;;;;0.10;0.10;;;;;;;;;;5092863;28;20467;-69
2022/11/05 04:37:24;;;;;;;0.10;0.10;;;;;;;;;;5093144;28;20024;-68
2022/11/05 04:39:50;;;;;;;0.10;0.10;;;;;;;;;;5092888;28;20077;-69
2022/11/05 04:42:15;;;;;;;0.10;0.10;;;;;;;;;;5092564;28;20070;-70
2022/11/05 04:44:40;;;;;;;0.80;0.30;;;;;;;;;;5092224;28;20024;-70
2022/11/05 04:47:06;;;;;;;0.28;0.28;;;;;;;;;;5091273;28;20407;-70
2022/11/05 04:49:32;;;;;;;0.00;0.00;;;;;;;;;;5092567;28;20499;-70
2022/11/05 04:51:58;;;;;;;0.10;0.10;;;;;;;;;;5092739;28;20079;-69
2022/11/05 04:54:23;;;;;;;0.10;0.10;;;;;;;;;;5092553;28;20040;-70
2022/11/05 04:56:49;;;;;;;0.10;0.10;;;;;;;;;;5092513;28;20031;-70
2022/11/05 04:59:14;;;;;;;0.10;0.10;;;;;;;;;;5092486;28;20111;-70
2022/11/05 05:01:40;;;;;;;0.10;0.10;;;;;;;;;;5099303;28;20023;-70
2022/11/05 05:04:05;;;;;;;0.10;0.10;;;;;;;;;;5111604;28;20031;-70
2022/11/05 05:06:31;;;;;;;0.10;0.10;;;;;;;;;;5112848;28;20625;-70
2022/11/05 05:08:56;;;;;;;0.10;0.10;;;;;;;;;;5110188;28;20412;-69
2022/11/05 05:11:22;;;;;;;0.10;0.10;;;;;;;;;;5112803;28;20102;-70
2022/11/05 05:13:47;;;;;;;0.10;0.10;;;;;;;;;;5111899;28;20032;-69
2022/11/05 05:16:16;;;;;;;0.10;0.10;;;;;;;;;;5112702;28;20065;-69
2022/11/05 05:18:41;;;;;;;0.10;0.10;;;;;;;;;;5110038;27;20382;-69
2022/11/05 05:23:51;;;;;;;0.10;0.10;;;;;;;;;;5092427;28;20444;-70
2022/11/05 05:26:16;;;;;;;0.10;0.10;;;;;;;;;;5089873;28;20024;-70
2022/11/05 05:28:42;;;;;;;0.10;0.10;;;;;;;;;;5089707;28;20106;-70
2022/11/05 05:31:08;;;;;;;0.10;0.10;;;;;;;;;;5089088;28;20028;-69
2022/11/05 05:33:33;;;;;;;0.10;0.10;;;;;;;;;;5101011;28;20107;-69
2022/11/05 05:35:59;;;;;;;0.10;0.10;;;;;;;;;;5089737;28;20081;-68
2022/11/05 05:38:24;;;;;;;0.10;0.10;;;;;;;;;;5090133;28;20028;-70
2022/11/05 05:40:50;;;;;;;0.10;0.10;;;;;;;;;;5089608;28;20032;-69
2022/11/05 05:43:15;;;;;;;0.10;0.10;;;;;;;;;;5089461;28;20669;-70
2022/11/05 05:45:41;;;;;;;0.10;0.10;;;;;;;;;;5089504;28;20498;-71
2022/11/05 05:48:07;;;;;;;0.10;0.10;;;;;;;;;;5095882;28;20042;-70
2022/11/05 05:50:32;;;;;;;0.10;0.10;;;;;;;;;;5102547;28;20120;-70
2022/11/05 05:53:05;;;;;;;0.03;0.03;;;;;;;;;;5089013;28;20028;-71
2022/11/05 05:55:30;;;;;;;0.10;0.10;;;;;;;;;;5088295;28;20027;-70
2022/11/05 05:57:56;;;;;;;0.10;0.10;;;;;;;;;;5103410;28;20019;-69
2022/11/05 06:00:21;;;;;;;0.15;0.15;;;;;;;;;;5109944;28;20630;-70
2022/11/05 06:02:47;;;;;;;0.10;0.10;;;;;;;;;;5108981;28;20077;-70
2022/11/05 06:05:12;;;;;;;0.10;0.10;;;;;;;;;;5108367;28;20099;-68
2022/11/05 06:07:38;;;;;;;0.10;0.10;;;;;;;;;;5109054;28;20119;-71
2022/11/05 06:10:03;;;;;;;0.13;0.13;;;;;;;;;;5088241;28;20024;-70
2022/11/05 06:12:29;;;;;;;0.65;0.65;;;;;;;;;;5094999;28;20488;-70
2022/11/05 06:14:54;;;;;;;0.10;0.10;;;;;;;;;;5098743;27;20563;-70
2022/11/05 06:17:20;;;;;;;0.10;0.10;;;;;;;;;;5092425;28;20036;-70
2022/11/05 06:19:45;;;;;;;0.10;0.10;;;;;;;;;;5089014;28;20482;-69
2022/11/05 06:22:11;;;;;;;0.10;0.10;;;;;;;;;;5089099;28;20427;-69
2022/11/05 06:24:36;;;;;;;0.10;0.10;;;;;;;;;;5088448;28;20238;-70
2022/11/05 06:27:02;;;;;;;0.65;0.65;;;;;;;;;;5088264;28;20078;-71
2022/11/05 06:29:27;;;;;;;0.10;0.10;;;;;;;;;;5095141;28;20085;-70
2022/11/05 06:31:53;;;;;;;0.10;0.10;;;;;;;;;;5091591;28;20051;-70
2022/11/05 06:34:18;;;;;;;0.10;0.10;;;;;;;;;;5092576;28;20264;-70
2022/11/05 06:36:44;;;;;;;0.10;0.10;;;;;;;;;;5098350;28;20028;-70
2022/11/05 06:39:10;;;;;;;0.63;0.63;;;;;;;;;;5094959;28;20061;-70
2022/11/05 06:41:35;;;;;;;0.40;0.40;;;;;;;;;;5098216;28;20023;-69
2022/11/05 06:44:00;;;;;;;0.15;0.15;;;;;;;;;;5096605;28;20024;-70
2022/11/05 06:46:26;;;;;;;0.52;0.50;;;;;;;;;;5087255;28;20044;-69
2022/11/05 06:48:51;;;;;;;0.10;0.10;;;;;;;;;;5090453;28;20036;-69
2022/11/05 06:51:17;;;;;;;0.40;0.40;;;;;;;;;;5089598;28;20375;-70
2022/11/05 06:53:42;;;;;;;0.00;0.00;;;;;;;;;;5088507;28;20036;-70
2022/11/05 06:56:08;;;;;;;0.10;0.10;;;;;;;;;;5088134;28;20052;-70
2022/11/05 06:58:34;;;;;;;0.10;0.10;;;;;;;;;;5093432;28;20026;-71
2022/11/05 07:01:00;;;;;;;0.10;0.10;;;;;;;;;;5099680;28;20042;-71
2022/11/05 07:03:25;;;;;;;0.10;0.10;;;;;;;;;;5106111;28;20057;-70
2022/11/05 07:05:51;;;;;;;0.10;0.10;;;;;;;;;;5096336;28;20052;-70
2022/11/05 07:08:16;;;;;;;0.10;0.10;;;;;;;;;;5090324;28;20475;-70
2022/11/05 07:10:42;;;;;;;0.10;0.10;;;;;;;;;;5089046;28;20502;-69
2022/11/05 07:13:07;;;;;;;0.10;0.10;;;;;;;;;;5107507;28;20063;-69
2022/11/05 07:15:33;;;;;;;0.25;0.25;;;;;;;;;;5101268;28;20031;-70
2022/11/05 07:17:59;;;;;;;0.10;0.10;;;;;;;;;;5097088;28;20022;-69
2022/11/05 07:20:24;;;;;;;0.10;0.10;;;;;;;;;;5103867;28;20502;-69
2022/11/05 07:22:50;;;;;;;0.13;0.13;;;;;;;;;;5110069;28;20028;-70
2022/11/05 07:25:15;;;;;;;0.10;0.10;;;;;;;;;;5109974;28;20449;-70
2022/11/05 07:27:41;;;;;;;0.10;0.10;;;;;;;;;;5110125;28;20425;-70
2022/11/05 07:30:08;;;;;;;0.10;0.10;;;;;;;;;;5108794;28;20119;-70
2022/11/05 07:32:42;;;;;;;0.10;0.10;;;;;;;;;;5106281;28;20031;-72
2022/11/05 07:35:08;;;;;;;0.10;0.10;;;;;;;;;;5107294;28;20038;-70
2022/11/05 07:37:40;;;;;;;0.20;0.20;;;;;;;;;;5108658;28;20087;-70
2022/11/05 07:40:06;;;;;;;3.08;2.85;;;;;;;;;;5108675;28;20024;-70
2022/11/05 07:42:33;;;;;;;0.10;0.10;;;;;;;;;;5108507;28;20097;-70
2022/11/05 07:44:58;;;;;;;0.10;0.10;;;;;;;;;;5108858;28;20020;-71
2022/11/05 07:47:25;;;;;;;0.10;0.10;;;;;;;;;;5108111;28;20271;-70
2022/11/05 07:49:51;;;;;;;0.10;0.10;;;;;;;;;;5106892;28;20042;-71
2022/11/05 07:52:16;;;;;;;0.10;0.10;;;;;;;;;;5107435;28;20601;-70
2022/11/05 07:54:41;;;;;;;0.10;0.10;;;;;;;;;;5096748;28;20031;-71
2022/11/05 07:57:07;;;;;;;0.10;0.10;;;;;;;;;;5087982;28;20032;-70
2022/11/05 07:59:32;;;;;;;0.82;0.82;;;;;;;;;;5086746;28;20063;-71
2022/11/05 08:01:58;;;;;;;0.10;0.10;;;;;;;;;;5089141;28;20029;-70
2022/11/05 08:04:23;;;;;;;0.10;0.10;;;;;;;;;;5089339;28;20032;-70
2022/11/05 08:06:49;;;;;;;0.10;0.10;;;;;;;;;;5087989;28;20044;-70
2022/11/05 08:09:14;;;;;;;0.10;0.10;;;;;;;;;;5089199;28;20037;-69
2022/11/05 08:11:40;;;;;;;0.10;0.10;;;;;;;;;;5088494;28;20029;-70
2022/11/05 08:14:05;;;;;;;0.30;0.30;;;;;;;;;;5089122;28;20035;-71
2022/11/05 08:16:31;;;;;;;0.57;0.57;;;;;;;;;;5088104;28;20035;-70
2022/11/05 08:18:56;;;;;;;0.20;0.20;;;;;;;;;;5088954;28;20024;-70
2022/11/05 08:21:21;;;;;;;0.10;0.10;;;;;;;;;;5088749;28;20530;-70
2022/11/05 08:23:47;;;;;;;0.10;0.10;;;;;;;;;;5089239;28;20116;-71
2022/11/05 08:26:12;;;;;;;0.10;0.10;;;;;;;;;;5089529;28;20372;-70
2022/11/05 08:28:38;;;;;;;0.10;0.10;;;;;;;;;;5088920;28;20031;-70
2022/11/05 08:31:03;;;;;;;0.15;0.15;;;;;;;;;;5088734;28;20533;-69
2022/11/05 08:33:30;;;;;;;0.10;0.10;;;;;;;;;;5087436;28;20028;-70
2022/11/05 08:35:55;;;;;;;0.10;0.10;;;;;;;;;;5087816;28;20032;-69
2022/11/05 08:38:21;;;;;;;6.65;4.03;;;;;;;;;;5086387;28;20115;-69
2022/11/05 08:40:52;;;;;;;0.10;0.10;;;;;;;;;;5086326;28;20028;-71
2022/11/05 08:43:18;;;;;;;0.10;0.10;;;;;;;;;;5086363;28;20032;-70
2022/11/05 08:45:43;;;;;;;0.10;0.10;;;;;;;;;;5086224;28;20032;-70
2022/11/05 08:48:10;;;;;;;0.10;0.10;;;;;;;;;;5085732;28;20040;-70
2022/11/05 08:50:36;;;;;;;0.10;0.10;;;;;;;;;;5089074;28;20077;-70
2022/11/05 08:53:02;;;;;;;0.20;0.20;;;;;;;;;;5092868;28;20028;-70
2022/11/05 08:55:28;;;;;;;0.20;0.20;;;;;;;;;;5092409;28;20536;-69
2022/11/05 08:57:57;;;;;;;0.10;0.10;;;;;;;;;;5092794;28;20024;-69
2022/11/05 09:00:22;;;;;;;0.15;0.15;;;;;;;;;;5092601;28;20020;-70
2022/11/05 09:02:48;;;;;;;0.20;0.20;;;;;;;;;;5092378;28;20027;-70
2022/11/05 09:05:13;;;;;;;0.15;0.15;;;;;;;;;;5092417;28;20032;-69
2022/11/05 09:07:39;;;;;;;0.10;0.10;;;;;;;;;;5092172;28;20048;-70
2022/11/05 09:10:04;;;;;;;0.10;0.10;;;;;;;;;;5092228;28;20133;-70
2022/11/05 09:12:30;;;;;;;0.28;0.28;;;;;;;;;;5092557;28;20031;-70
2022/11/05 09:14:55;;;;;;;0.20;0.20;;;;;;;;;;5092199;28;20023;-69
2022/11/05 09:17:21;;;;;;;0.30;0.30;;;;;;;;;;5092360;28;20051;-69
2022/11/05 09:19:47;;;;;;;0.20;0.20;;;;;;;;;;5092285;28;20387;-71
2022/11/05 09:22:12;;;;;;;0.20;0.20;;;;;;;;;;5092663;28;20028;-69
2022/11/05 09:24:39;;;;;;;0.20;0.20;;;;;;;;;;5091768;28;20027;-69
2022/11/05 09:27:04;;;;;;;0.20;0.20;;;;;;;;;;5091800;28;20550;-69
2022/11/05 09:29:30;;;;;;;0.17;0.17;;;;;;;;;;5090847;28;20123;-70
2022/11/05 09:31:55;;;;;;;0.20;0.20;;;;;;;;;;5091963;28;20081;-70
2022/11/05 09:34:21;;;;;;;0.20;0.20;;;;;;;;;;5091778;28;20024;-70
2022/11/05 09:36:47;;;;;;;0.10;0.10;;;;;;;;;;5091417;28;20081;-70
2022/11/05 09:39:12;;;;;;;0.20;0.20;;;;;;;;;;5091816;28;20049;-70
2022/11/05 09:41:38;;;;;;;0.20;0.20;;;;;;;;;;5091880;28;20058;-69
2022/11/05 09:44:12;;;;;;;0.13;0.13;;;;;;;;;;5091633;28;20016;-70
2022/11/05 09:46:52;;;;;;;0.25;0.25;;;;;;;;;;5091056;28;20056;-69
2022/11/05 09:49:28;;;;;;;0.13;0.13;;;;;;;;;;5091449;28;20047;-69
2022/11/05 09:51:55;;;;;;;5.95;2.08;;;;;;;;;;5091808;28;20031;-69
2022/11/05 09:54:22;;;;;;;0.10;0.10;;;;;;;;;;5091634;28;20088;-69
2022/11/05 09:56:48;;;;;;;0.20;0.20;;;;;;;;;;5091037;28;20035;-69
2022/11/05 09:59:18;;;;;;;0.20;0.20;;;;;;;;;;5090121;28;20481;-69
2022/11/05 10:01:44;;;;;;;0.98;0.98;;;;;;;;;;5091182;28;20027;-68
2022/11/05 10:04:15;;;;;;;0.20;0.20;;;;;;;;;;5091530;28;20509;-69
2022/11/05 10:06:44;;;;;;;0.15;0.15;;;;;;;;;;5090115;28;20048;-68
2022/11/05 10:09:16;;;;;;;0.20;0.20;;;;;;;;;;5089996;28;20028;-70
2022/11/05 10:11:48;;;;;;;0.15;0.15;;;;;;;;;;5091742;28;20048;-70
2022/11/05 10:14:14;;;;;;;0.20;0.20;;;;;;;;;;5091443;28;20076;-70
2022/11/05 10:16:41;;;;;;;0.20;0.20;;;;;;;;;;5090902;28;20032;-70
2022/11/05 10:19:08;;;;;;;0.20;0.20;;;;;;;;;;5091279;28;20028;-70
2022/11/05 10:21:34;;;;;;;0.10;0.10;;;;;;;;;;5091058;28;20031;-70
2022/11/05 10:24:00;;;;;;;0.20;0.20;;;;;;;;;;5090996;28;20024;-69
2022/11/05 10:26:26;;;;;;;0.20;0.20;;;;;;;;;;5089853;28;20094;-69
2022/11/05 10:28:52;;;;;;;0.20;0.20;;;;;;;;;;5090652;28;20036;-70
2022/11/05 10:31:20;;;;;;;0.20;0.20;;;;;;;;;;5090693;28;20035;-70
2022/11/05 10:33:48;;;;;;;0.10;0.10;;;;;;;;;;5090646;28;20383;-70
2022/11/05 10:36:25;;;;;;;0.17;0.17;;;;;;;;;;5090554;28;20028;-69
2022/11/05 10:38:51;;;;;;;0.25;0.25;;;;;;;;;;5088915;28;20032;-70
2022/11/05 10:41:25;;;;;;;0.20;0.20;;;;;;;;;;5090631;28;20020;-69
2022/11/05 10:43:53;;;;;;;0.20;0.20;;;;;;;;;;5090477;28;20038;-69
2022/11/05 10:46:21;;;;;;;0.15;0.15;;;;;;;;;;5090432;28;20040;-69
2022/11/05 10:48:59;;;;;;;0.15;0.15;;;;;;;;;;5090164;28;20036;-70
2022/11/05 10:51:25;;;;;;;0.20;0.20;;;;;;;;;;5089327;28;20032;-69
2022/11/05 10:53:55;;;;;;;0.20;0.20;;;;;;;;;;5090290;28;20031;-69
2022/11/05 10:56:31;;;;;;;0.10;0.10;;;;;;;;;;5090195;28;20036;-68
2022/11/05 10:58:58;;;;;;;0.13;0.13;;;;;;;;;;5091125;28;20031;-69
2022/11/05 11:01:23;;;;;;;0.20;0.20;;;;;;;;;;5091419;28;20032;-70
2022/11/05 11:03:51;;;;;;;0.20;0.20;;;;;;;;;;5090287;28;20069;-70
2022/11/05 11:06:16;;;;;;;0.10;0.10;;;;;;;;;;5090210;28;20107;-70
2022/11/05 11:08:43;;;;;;;0.13;0.13;;;;;;;;;;5091129;28;20107;-69
2022/11/05 11:11:10;;;;;;;0.20;0.20;;;;;;;;;;5110158;28;20454;-71
2022/11/05 11:13:50;;;;;;;0.17;0.17;;;;;;;;;;5089617;28;20056;-70
2022/11/05 11:16:18;;;;;;;0.20;0.20;;;;;;;;;;5088751;28;20420;-71
2022/11/05 11:18:44;;;;;;;0.20;0.20;;;;;;;;;;5089284;28;20501;-70
2022/11/05 11:21:14;;;;;;;0.20;0.20;;;;;;;;;;5089257;28;20020;-71
2022/11/05 11:23:40;;;;;;;0.20;0.20;;;;;;;;;;5088999;28;20016;-69
2022/11/05 11:26:06;;;;;;;0.35;0.35;;;;;;;;;;5071463;28;20106;-70
2022/11/05 11:28:54;;;;;;;0.20;0.20;;;;;;;;;;5088238;28;20490;-71
2022/11/05 11:31:21;;;;;;;0.13;0.13;;;;;;;;;;5089606;28;20031;-69
2022/11/05 11:33:48;;;;;;;0.40;0.40;;;;;;;;;;5089946;28;20028;-69
2022/11/05 11:36:16;;;;;;;0.15;0.15;;;;;;;;;;5090063;28;20032;-70
2022/11/05 11:38:42;;;;;;;0.30;0.30;;;;;;;;;;5088820;28;20024;-70
2022/11/05 11:41:25;;;;;;;0.20;0.20;;;;;;;;;;5089340;28;20066;-69
2022/11/05 11:43:56;;;;;;;0.15;0.15;;;;;;;;;;5089658;28;20042;-69
2022/11/05 11:46:21;;;;;;;0.20;0.20;;;;;;;;;;5089597;28;20716;-70
2022/11/05 11:48:48;;;;;;;0.20;0.20;;;;;;;;;;5088897;28;20542;-70
2022/11/05 11:51:36;;;;;;;0.10;0.10;;;;;;;;;;5088490;28;20032;-69
2022/11/05 11:54:03;;;;;;;0.20;0.20;;;;;;;;;;5089699;28;20463;-69
2022/11/05 11:56:31;;;;;;;0.20;0.20;;;;;;;;;;5088325;28;20024;-69
2022/11/05 11:59:00;;;;;;;1.40;0.82;;;;;;;;;;5089232;28;20085;-69
2022/11/05 12:01:31;;;;;;;0.15;0.15;;;;;;;;;;5089219;28;20028;-69
2022/11/05 12:04:06;;;;;;;0.38;0.30;;;;;;;;;;5089244;28;20032;-70
2022/11/05 12:06:32;;;;;;;0.20;0.20;;;;;;;;;;5089157;28;20671;-70
2022/11/05 12:09:23;;;;;;;0.20;0.20;;;;;;;;;;5089022;28;20055;-68
2022/11/05 12:12:06;;;;;;;0.13;0.13;;;;;;;;;;5088242;28;20538;-69
2022/11/05 12:14:32;;;;;;;0.20;0.20;;;;;;;;;;5087485;28;20028;-69
2022/11/05 12:17:04;;;;;;;0.15;0.15;;;;;;;;;;5087423;28;20035;-68
2022/11/05 12:19:37;;;;;;;0.45;0.45;;;;;;;;;;5089316;28;20359;-69
2022/11/05 12:22:09;;;;;;;0.20;0.20;;;;;;;;;;5089276;28;20439;-70
2022/11/05 12:24:41;;;;;;;0.20;0.20;;;;;;;;;;5092348;28;20024;-70
2022/11/05 12:27:45;;;;;;;0.50;0.47;;;;;;;;;;5092040;28;20028;-69
2022/11/05 12:30:13;;;;;;;4.47;0.93;;;;;;;;;;5070297;28;20036;-70
2022/11/05 12:32:48;;;;;;;3.53;0.50;;;;;;;;;;5071151;28;20028;-69
2022/11/05 12:35:19;;;;;;;0.20;0.20;;;;;;;;;;5082440;28;20050;-69
2022/11/05 12:37:51;;;;;;;0.20;0.20;;;;;;;;;;5093400;28;20032;-69
2022/11/05 12:40:27;;;;;;;0.25;0.25;;;;;;;;;;5093152;28;20032;-70
2022/11/05 12:43:01;;;;;;;0.30;0.30;;;;;;;;;;5092923;28;20102;-68
2022/11/05 12:45:27;;;;;;;0.20;0.20;;;;;;;;;;5092723;28;20024;-67
2022/11/05 12:47:59;;;;;;;0.20;0.20;;;;;;;;;;5091764;28;20047;-69
2022/11/05 12:50:32;;;;;;;0.20;0.20;;;;;;;;;;5091958;28;20103;-69
2022/11/05 12:53:17;;;;;;;0.20;0.20;;;;;;;;;;5074647;28;20039;-69
2022/11/05 12:55:43;;;;;;;0.52;0.52;;;;;;;;;;5091589;28;20040;-69
2022/11/05 12:58:12;;;;;;;0.20;0.20;;;;;;;;;;5092866;28;20371;-69
2022/11/05 13:00:39;;;;;;;5.38;3.40;;;;;;;;;;5091171;28;20028;-70
2022/11/05 13:03:04;;;;;;;0.45;0.25;;;;;;;;;;5092554;28;20383;-70
2022/11/05 13:05:38;;;;;;;0.65;0.65;;;;;;;;;;5092425;28;20115;-70
2022/11/05 13:08:10;;;;;;;0.20;0.20;;;;;;;;;;5091911;28;20040;-70
2022/11/05 13:10:39;;;;;;;0.17;0.17;;;;;;;;;;5093356;28;20154;-69
2022/11/05 13:13:15;;;;;;;0.10;0.10;;;;;;;;;;5093182;28;20037;-70
2022/11/05 13:16:00;;;;;;;0.20;0.20;;;;;;;;;;5092742;28;20032;-69
2022/11/05 13:18:28;;;;;;;0.22;0.22;;;;;;;;;;5091833;28;20044;-69
2022/11/05 13:20:55;;;;;;;0.20;0.20;;;;;;;;;;5091966;28;20039;-69
2022/11/05 13:23:26;;;;;;;0.20;0.20;;;;;;;;;;5092040;28;20041;-69
2022/11/05 13:25:54;;;;;;;0.20;0.20;;;;;;;;;;5092251;28;20024;-69
2022/11/05 13:28:45;;;;;;;0.22;0.22;;;;;;;;;;5090962;28;20047;-69
2022/11/05 13:31:13;;;;;;;0.20;0.20;;;;;;;;;;5091219;28;20032;-69
2022/11/05 13:33:41;;;;;;;0.30;0.30;;;;;;;;;;5092478;28;20897;-71
2022/11/05 13:38:58;;;;;;;0.20;0.20;;;;;;;;;;5088718;28;20394;-72
2022/11/05 13:41:27;;;;;;;0.20;0.20;;;;;;;;;;5092006;28;20016;-71
2022/11/05 13:43:55;;;;;;;0.20;0.20;;;;;;;;;;5091701;28;20020;-71
2022/11/05 13:46:28;;;;;;;0.22;0.22;;;;;;;;;;5091968;28;20753;-71
2022/11/05 13:48:54;;;;;;;0.20;0.20;;;;;;;;;;5091004;28;20555;-70
2022/11/05 13:51:28;;;;;;;0.20;0.20;;;;;;;;;;5091222;28;20024;-69
2022/11/05 13:54:00;;;;;;;0.20;0.20;;;;;;;;;;5091770;28;20084;-70
2022/11/05 13:56:44;;;;;;;0.20;0.20;;;;;;;;;;5091760;28;20032;-70
2022/11/05 13:59:09;;;;;;;0.20;0.20;;;;;;;;;;5091461;28;20016;-70
2022/11/05 14:01:45;;;;;;;0.20;0.20;;;;;;;;;;5091490;28;20370;-69
2022/11/05 14:04:34;;;;;;;0.20;0.20;;;;;;;;;;5091674;28;20035;-71
2022/11/05 14:07:07;;;;;;;0.20;0.20;;;;;;;;;;5088260;28;20044;-71
2022/11/05 14:09:33;;;;;;;0.20;0.20;;;;;;;;;;5091169;28;20036;-71
2022/11/05 14:11:59;;;;;;;0.20;0.20;;;;;;;;;;5090909;28;20059;-72
2022/11/05 14:14:28;;;;;;;0.20;0.20;;;;;;;;;;5091510;28;20043;-70
2022/11/05 14:17:13;;;;;;;0.20;0.20;;;;;;;;;;5089774;28;20067;-69
2022/11/05 14:19:49;;;;;;;0.20;0.20;;;;;;;;;;5091789;28;20070;-70
2022/11/05 14:22:34;;;;;;;0.20;0.20;;;;;;;;;;5090928;28;20032;-70
2022/11/05 14:25:00;;;;;;;0.20;0.20;;;;;;;;;;5090830;28;20034;-72
2022/11/05 14:27:28;;;;;;;0.20;0.20;;;;;;;;;;5090497;28;20036;-71
2022/11/05 14:29:54;;;;;;;0.20;0.20;;;;;;;;;;5089309;28;20028;-69
2022/11/05 14:32:19;;;;;;;0.20;0.20;;;;;;;;;;5103192;28;20485;-69
2022/11/05 14:34:48;;;;;;;0.10;0.10;;;;;;;;;;5110841;28;20077;-69
2022/11/05 14:37:24;;;;;;;0.20;0.20;;;;;;;;;;5109565;28;20031;-69
2022/11/05 14:39:49;;;;;;;0.20;0.20;;;;;;;;;;5111359;28;20058;-70
2022/11/05 14:42:18;;;;;;;0.20;0.20;;;;;;;;;;5110840;28;20047;-69
2022/11/05 14:45:03;;;;;;;0.20;0.20;;;;;;;;;;5110608;28;20102;-69
2022/11/05 14:47:34;;;;;;;0.20;0.20;;;;;;;;;;5108418;28;20047;-69
2022/11/05 14:50:03;;;;;;;0.20;0.20;;;;;;;;;;5109614;28;20035;-68
2022/11/05 14:52:29;;;;;;;0.28;0.28;;;;;;;;;;5109387;28;20036;-70
2022/11/05 14:54:55;;;;;;;0.20;0.20;;;;;;;;;;5110545;28;20452;-70
2022/11/05 14:57:40;;;;;;;0.20;0.20;;;;;;;;;;5110661;28;20035;-70
2022/11/05 15:00:27;;;;;;;0.20;0.20;;;;;;;;;;5110255;28;20030;-70
2022/11/05 15:02:57;;;;;;;0.20;0.20;;;;;;;;;;5098366;28;20093;-70
2022/11/05 15:05:41;;;;;;;0.20;0.20;;;;;;;;;;5110519;28;20027;-70
2022/11/05 15:08:25;;;;;;;0.20;0.20;;;;;;;;;;5109508;28;20046;-70
2022/11/05 15:10:52;;;;;;;0.20;0.20;;;;;;;;;;5110140;28;20382;-70
2022/11/05 15:13:32;;;;;;;0.20;0.20;;;;;;;;;;5110332;28;20011;-70
2022/11/05 15:15:58;;;;;;;0.20;0.20;;;;;;;;;;5110551;28;20081;-71
2022/11/05 15:18:28;;;;;;;0.30;0.30;;;;;;;;;;5110524;28;20047;-70
2022/11/05 15:20:55;;;;;;;0.20;0.20;;;;;;;;;;5109933;28;20466;-70
2022/11/05 15:23:22;;;;;;;0.30;0.30;;;;;;;;;;5110011;28;20059;-70
2022/11/05 15:25:54;;;;;;;0.20;0.20;;;;;;;;;;5110272;28;20062;-69
2022/11/05 15:28:31;;;;;;;0.10;0.10;;;;;;;;;;5109921;28;20043;-70
2022/11/05 15:30:56;;;;;;;0.22;0.22;;;;;;;;;;5111210;28;20031;-70
2022/11/05 15:33:22;;;;;;;0.20;0.20;;;;;;;;;;5110729;28;20024;-69
2022/11/05 15:35:47;;;;;;;0.30;0.20;;;;;;;;;;5110136;28;20458;-69